CES9618 VNKT-ZPPP
Flight info
| Callsign | CES9618 |
|---|---|
| Flight time | 2h 13m |
| Altitude | 37000 |
| Route | IGRIS1E KIMTI B345 TUMLI DCT SUBSU DCT DMR/K0822S1130 DCT BUBSU W146 GULOT GULOT4M |
| Aircraft | A320/M-SDE3FGHIRWY/LB1 |
Departure
| Time | 2026-05-09 09:18 |
|---|---|
| Airport | Tribhuvan International Airport (VNKT) |
Arrival
| Time | 2026-05-09 11:31 |
|---|---|
| Airport | Kunming Changshui International Airport (ZPPP) |
| Time | Latitude | Longitude | Altitude | Speed | Heading |
|---|---|---|---|---|---|
| 2026-05-09 08:57 | 27.69937 | 85.35808 | 4379 ft | 0 kts | 291° |
| 2026-05-09 09:12 | 27.69931 | 85.35824 | 4380 ft | 4 kts | 290° |
| 2026-05-09 09:12 | 27.69922 | 85.35853 | 4364 ft | 4 kts | 292° |
| 2026-05-09 09:12 | 27.69911 | 85.35880 | 4380 ft | 4 kts | 307° |
| 2026-05-09 09:12 | 27.69892 | 85.35898 | 4366 ft | 4 kts | 348° |
| 2026-05-09 09:13 | 27.69876 | 85.35899 | 4380 ft | 1 kts | 19° |
| 2026-05-09 09:14 | 27.69882 | 85.35901 | 4370 ft | 4 kts | 19° |
| 2026-05-09 09:14 | 27.69944 | 85.35929 | 4368 ft | 16 kts | 23° |
| 2026-05-09 09:15 | 27.70058 | 85.35979 | 4380 ft | 17 kts | 21° |
| 2026-05-09 09:15 | 27.70156 | 85.36024 | 4384 ft | 15 kts | 22° |
| 2026-05-09 09:15 | 27.70251 | 85.36069 | 4386 ft | 15 kts | 22° |
| 2026-05-09 09:15 | 27.70356 | 85.36118 | 4388 ft | 17 kts | 22° |
| 2026-05-09 09:16 | 27.70459 | 85.36162 | 4390 ft | 14 kts | 21° |
| 2026-05-09 09:16 | 27.70567 | 85.36260 | 4392 ft | 11 kts | 82° |
| 2026-05-09 09:16 | 27.70519 | 85.36307 | 4393 ft | 10 kts | 187° |
| 2026-05-09 09:17 | 27.70399 | 85.36254 | 4391 ft | 42 kts | 202° |
| 2026-05-09 09:17 | 27.69897 | 85.36028 | 4379 ft | 110 kts | 202° |
| 2026-05-09 09:17 | 27.69006 | 85.35621 | 4354 ft | 165 kts | 202° |
| 2026-05-09 09:17 | 27.67873 | 85.35091 | 4745 ft | 181 kts | 202° |
| 2026-05-09 09:18 | 27.66721 | 85.34537 | 5556 ft | 180 kts | 208° |
| 2026-05-09 09:18 | 27.65713 | 85.33641 | 5977 ft | 195 kts | 229° |
| 2026-05-09 09:18 | 27.65031 | 85.32216 | 6180 ft | 221 kts | 254° |
| 2026-05-09 09:18 | 27.64954 | 85.30407 | 6488 ft | 243 kts | 281° |
| 2026-05-09 09:19 | 27.65666 | 85.28651 | 7088 ft | 253 kts | 307° |
| 2026-05-09 09:19 | 27.66998 | 85.27322 | 7575 ft | 267 kts | 332° |
| 2026-05-09 09:19 | 27.68780 | 85.26666 | 8323 ft | 272 kts | 356° |
| 2026-05-09 09:19 | 27.70641 | 85.26863 | 9100 ft | 271 kts | 20° |
| 2026-05-09 09:20 | 27.72281 | 85.27891 | 9937 ft | 270 kts | 44° |
| 2026-05-09 09:20 | 27.73416 | 85.29572 | 10634 ft | 271 kts | 66° |
| 2026-05-09 09:20 | 27.74209 | 85.31504 | 11388 ft | 272 kts | 68° |
| 2026-05-09 09:20 | 27.75005 | 85.33448 | 12152 ft | 273 kts | 66° |
| 2026-05-09 09:21 | 27.75672 | 85.35463 | 12874 ft | 275 kts | 79° |
| 2026-05-09 09:21 | 27.75799 | 85.37620 | 13575 ft | 278 kts | 96° |
| 2026-05-09 09:21 | 27.75344 | 85.39741 | 14241 ft | 280 kts | 113° |
| 2026-05-09 09:21 | 27.74342 | 85.41629 | 14854 ft | 284 kts | 130° |
| 2026-05-09 09:22 | 27.72854 | 85.43119 | 15432 ft | 290 kts | 148° |
| 2026-05-09 09:22 | 27.71020 | 85.44111 | 15975 ft | 295 kts | 157° |
| 2026-05-09 09:22 | 27.69119 | 85.45078 | 16379 ft | 309 kts | 151° |
| 2026-05-09 09:22 | 27.67268 | 85.46459 | 16515 ft | 329 kts | 140° |
| 2026-05-09 09:23 | 27.65591 | 85.48326 | 16648 ft | 349 kts | 129° |
| 2026-05-09 09:23 | 27.64208 | 85.50652 | 16818 ft | 366 kts | 117° |
| 2026-05-09 09:23 | 27.63246 | 85.53340 | 17254 ft | 374 kts | 106° |
| 2026-05-09 09:23 | 27.62509 | 85.56182 | 17807 ft | 379 kts | 106° |
| 2026-05-09 09:24 | 27.61746 | 85.59047 | 18403 ft | 384 kts | 107° |
| 2026-05-09 09:24 | 27.60970 | 85.61939 | 18917 ft | 387 kts | 107° |
| 2026-05-09 09:24 | 27.60198 | 85.64820 | 19421 ft | 390 kts | 107° |
| 2026-05-09 09:24 | 27.59409 | 85.67759 | 19922 ft | 394 kts | 107° |
| 2026-05-09 09:25 | 27.58420 | 85.70647 | 20435 ft | 397 kts | 115° |
| 2026-05-09 09:25 | 27.57190 | 85.73451 | 20966 ft | 400 kts | 116° |
| 2026-05-09 09:25 | 27.55941 | 85.76275 | 21476 ft | 404 kts | 116° |
| 2026-05-09 09:25 | 27.54683 | 85.79122 | 21990 ft | 407 kts | 116° |
| 2026-05-09 09:26 | 27.53417 | 85.82000 | 22507 ft | 411 kts | 116° |
| 2026-05-09 09:26 | 27.52232 | 85.84937 | 22951 ft | 414 kts | 110° |
| 2026-05-09 09:26 | 27.51409 | 85.88056 | 23411 ft | 418 kts | 102° |
| 2026-05-09 09:26 | 27.51004 | 85.91309 | 23867 ft | 421 kts | 93° |
| 2026-05-09 09:27 | 27.50890 | 85.94609 | 24264 ft | 424 kts | 92° |
| 2026-05-09 09:27 | 27.50777 | 85.97942 | 24653 ft | 426 kts | 92° |
| 2026-05-09 09:27 | 27.50657 | 86.01289 | 25053 ft | 428 kts | 92° |
| 2026-05-09 09:27 | 27.50532 | 86.04648 | 25421 ft | 431 kts | 92° |
| 2026-05-09 09:28 | 27.50401 | 86.08036 | 25807 ft | 434 kts | 92° |
| 2026-05-09 09:28 | 27.50265 | 86.11435 | 26191 ft | 436 kts | 92° |
| 2026-05-09 09:28 | 27.50125 | 86.14855 | 26553 ft | 438 kts | 92° |
| 2026-05-09 09:28 | 27.49988 | 86.18295 | 26952 ft | 441 kts | 92° |
| 2026-05-09 09:29 | 27.49854 | 86.21758 | 27311 ft | 444 kts | 92° |
| 2026-05-09 09:29 | 27.49718 | 86.25241 | 27654 ft | 446 kts | 94° |
| 2026-05-09 09:29 | 27.49304 | 86.28705 | 27998 ft | 448 kts | 102° |
| 2026-05-09 09:29 | 27.48653 | 86.32105 | 28325 ft | 451 kts | 102° |
| 2026-05-09 09:30 | 27.47985 | 86.35572 | 28744 ft | 453 kts | 102° |
| 2026-05-09 09:30 | 27.47318 | 86.39041 | 29071 ft | 455 kts | 102° |
| 2026-05-09 09:30 | 27.46647 | 86.42534 | 29379 ft | 457 kts | 102° |
| 2026-05-09 09:30 | 27.45973 | 86.46040 | 29707 ft | 459 kts | 102° |
| 2026-05-09 09:31 | 27.45294 | 86.49562 | 30001 ft | 462 kts | 102° |
| 2026-05-09 09:31 | 27.44613 | 86.53105 | 30283 ft | 464 kts | 102° |
| 2026-05-09 09:31 | 27.43931 | 86.56659 | 30504 ft | 466 kts | 102° |
| 2026-05-09 09:32 | 27.42542 | 86.63847 | 30744 ft | 474 kts | 103° |
| 2026-05-09 09:32 | 27.41836 | 86.67483 | 30922 ft | 477 kts | 103° |
| 2026-05-09 09:32 | 27.41123 | 86.71145 | 31085 ft | 479 kts | 103° |
| 2026-05-09 09:32 | 27.40407 | 86.74822 | 31293 ft | 481 kts | 103° |
| 2026-05-09 09:33 | 27.39691 | 86.78500 | 31535 ft | 482 kts | 103° |
| 2026-05-09 09:33 | 27.38972 | 86.82186 | 31826 ft | 482 kts | 104° |
| 2026-05-09 09:33 | 27.38252 | 86.85881 | 32106 ft | 482 kts | 104° |
| 2026-05-09 09:33 | 27.37541 | 86.89526 | 32341 ft | 483 kts | 104° |
| 2026-05-09 09:34 | 27.36819 | 86.93218 | 32647 ft | 482 kts | 104° |
| 2026-05-09 09:34 | 27.36098 | 86.96912 | 32844 ft | 485 kts | 105° |
| 2026-05-09 09:34 | 27.35370 | 87.00623 | 33107 ft | 486 kts | 105° |
| 2026-05-09 09:36 | 27.30231 | 87.26715 | 34664 ft | 490 kts | 106° |
| 2026-05-09 09:36 | 27.29504 | 87.30458 | 34874 ft | 490 kts | 106° |
| 2026-05-09 09:36 | 27.28772 | 87.34218 | 35044 ft | 494 kts | 107° |
| 2026-05-09 09:37 | 27.28049 | 87.37946 | 35233 ft | 495 kts | 107° |
| 2026-05-09 09:37 | 27.27316 | 87.41729 | 35396 ft | 496 kts | 107° |
| 2026-05-09 09:37 | 27.26575 | 87.45525 | 35557 ft | 498 kts | 107° |
| 2026-05-09 09:37 | 27.25826 | 87.49333 | 35726 ft | 498 kts | 107° |
| 2026-05-09 09:38 | 27.25081 | 87.53116 | 35850 ft | 495 kts | 107° |
| 2026-05-09 09:38 | 27.24334 | 87.56899 | 36000 ft | 497 kts | 107° |
| 2026-05-09 09:38 | 27.23586 | 87.60686 | 36117 ft | 496 kts | 107° |
| 2026-05-09 09:38 | 27.22838 | 87.64481 | 36242 ft | 499 kts | 107° |
| 2026-05-09 09:39 | 27.22088 | 87.68290 | 36369 ft | 500 kts | 107° |
| 2026-05-09 09:39 | 27.21337 | 87.72111 | 36479 ft | 501 kts | 108° |
| 2026-05-09 09:39 | 27.20577 | 87.75949 | 36597 ft | 505 kts | 108° |
| 2026-05-09 09:39 | 27.19812 | 87.79809 | 36756 ft | 506 kts | 108° |
| 2026-05-09 09:40 | 27.19044 | 87.83673 | 36880 ft | 506 kts | 108° |
| 2026-05-09 09:40 | 27.18277 | 87.87532 | 37042 ft | 506 kts | 108° |
| 2026-05-09 09:40 | 27.17511 | 87.91382 | 37090 ft | 506 kts | 108° |
| 2026-05-09 09:41 | 27.15967 | 87.99077 | 37090 ft | 505 kts | 108° |
| 2026-05-09 09:41 | 27.14432 | 88.06759 | 37097 ft | 509 kts | 108° |
| 2026-05-09 09:42 | 27.12870 | 88.14536 | 37099 ft | 512 kts | 109° |
| 2026-05-09 09:42 | 27.11294 | 88.22332 | 37077 ft | 513 kts | 108° |
| 2026-05-09 09:43 | 27.09711 | 88.30172 | 37038 ft | 514 kts | 109° |
| 2026-05-09 09:43 | 27.08135 | 88.37985 | 37066 ft | 512 kts | 109° |
| 2026-05-09 09:44 | 27.06541 | 88.45779 | 37083 ft | 513 kts | 109° |
| 2026-05-09 09:44 | 27.04942 | 88.53576 | 37071 ft | 513 kts | 109° |
| 2026-05-09 09:45 | 27.03341 | 88.61398 | 37081 ft | 514 kts | 109° |
| 2026-05-09 09:45 | 27.01742 | 88.69168 | 37062 ft | 513 kts | 108° |
| 2026-05-09 09:46 | 27.00123 | 88.77008 | 37073 ft | 517 kts | 109° |
| 2026-05-09 09:46 | 26.98511 | 88.84855 | 37021 ft | 516 kts | 109° |
| 2026-05-09 09:47 | 26.96898 | 88.92712 | 36996 ft | 518 kts | 109° |
| 2026-05-09 09:47 | 26.95286 | 89.00575 | 36998 ft | 518 kts | 109° |
| 2026-05-09 09:48 | 26.93667 | 89.08435 | 37016 ft | 519 kts | 109° |
| 2026-05-09 09:48 | 26.92031 | 89.16327 | 37021 ft | 519 kts | 109° |
| 2026-05-09 09:49 | 26.90399 | 89.24208 | 37019 ft | 518 kts | 109° |
| 2026-05-09 09:49 | 26.88783 | 89.32014 | 37001 ft | 517 kts | 109° |
| 2026-05-09 09:50 | 26.87144 | 89.39850 | 36983 ft | 517 kts | 109° |
| 2026-05-09 09:50 | 26.85500 | 89.47693 | 36927 ft | 517 kts | 109° |
| 2026-05-09 09:51 | 26.83855 | 89.55540 | 36954 ft | 517 kts | 109° |
| 2026-05-09 09:51 | 26.82208 | 89.63365 | 36957 ft | 517 kts | 109° |
| 2026-05-09 09:52 | 26.80560 | 89.71202 | 36951 ft | 516 kts | 109° |
| 2026-05-09 09:52 | 26.78905 | 89.79021 | 36944 ft | 515 kts | 109° |
| 2026-05-09 09:53 | 26.77260 | 89.86775 | 36954 ft | 515 kts | 109° |
| 2026-05-09 09:53 | 26.75602 | 89.94583 | 36956 ft | 516 kts | 109° |
| 2026-05-09 09:54 | 26.73936 | 90.02383 | 36892 ft | 515 kts | 110° |
| 2026-05-09 09:54 | 26.72260 | 90.10185 | 36896 ft | 515 kts | 110° |
| 2026-05-09 09:55 | 26.70865 | 90.16659 | 36883 ft | 516 kts | 110° |
| 2026-05-09 09:55 | 26.69192 | 90.24465 | 36888 ft | 516 kts | 110° |
| 2026-05-09 09:56 | 26.67516 | 90.32277 | 36885 ft | 516 kts | 110° |
| 2026-05-09 09:56 | 26.65829 | 90.40067 | 36876 ft | 516 kts | 110° |
| 2026-05-09 09:57 | 26.64134 | 90.47864 | 36871 ft | 516 kts | 110° |
| 2026-05-09 09:57 | 26.62444 | 90.55614 | 36858 ft | 517 kts | 110° |
| 2026-05-09 09:58 | 26.60747 | 90.63411 | 36858 ft | 517 kts | 110° |
| 2026-05-09 09:58 | 26.59041 | 90.71217 | 36861 ft | 517 kts | 110° |
| 2026-05-09 09:59 | 26.57326 | 90.79023 | 36848 ft | 517 kts | 110° |
| 2026-05-09 09:59 | 26.55605 | 90.86838 | 36830 ft | 518 kts | 110° |
| 2026-05-09 10:00 | 26.53886 | 90.94651 | 36833 ft | 518 kts | 110° |
| 2026-05-09 10:00 | 26.52159 | 91.02473 | 36842 ft | 519 kts | 110° |
| 2026-05-09 10:01 | 26.50422 | 91.10291 | 36849 ft | 519 kts | 110° |
| 2026-05-09 10:01 | 26.48673 | 91.18107 | 36820 ft | 520 kts | 111° |
| 2026-05-09 10:02 | 26.46929 | 91.25940 | 36827 ft | 520 kts | 111° |
| 2026-05-09 10:02 | 26.45181 | 91.33775 | 36829 ft | 521 kts | 111° |
| 2026-05-09 10:03 | 26.43424 | 91.41609 | 36832 ft | 521 kts | 111° |
| 2026-05-09 10:03 | 26.41658 | 91.49447 | 36839 ft | 521 kts | 111° |
| 2026-05-09 10:04 | 26.39886 | 91.57279 | 36823 ft | 520 kts | 111° |
| 2026-05-09 10:04 | 26.38132 | 91.65050 | 36832 ft | 520 kts | 111° |
| 2026-05-09 10:05 | 26.36361 | 91.72875 | 36836 ft | 520 kts | 111° |
| 2026-05-09 10:05 | 26.34581 | 91.80693 | 36839 ft | 520 kts | 111° |
| 2026-05-09 10:06 | 26.32800 | 91.88504 | 36855 ft | 520 kts | 111° |
| 2026-05-09 10:06 | 26.31019 | 91.96320 | 36846 ft | 520 kts | 111° |
| 2026-05-09 10:07 | 26.29236 | 92.04122 | 36853 ft | 519 kts | 111° |
| 2026-05-09 10:07 | 26.27441 | 92.11914 | 36854 ft | 518 kts | 111° |
| 2026-05-09 10:08 | 26.25648 | 92.19690 | 36857 ft | 518 kts | 111° |
| 2026-05-09 10:08 | 26.23853 | 92.27468 | 36845 ft | 518 kts | 111° |
| 2026-05-09 10:09 | 26.22061 | 92.35224 | 36871 ft | 517 kts | 111° |
| 2026-05-09 10:09 | 26.20275 | 92.42918 | 36877 ft | 516 kts | 111° |
| 2026-05-09 10:10 | 26.18472 | 92.50643 | 36887 ft | 515 kts | 111° |
| 2026-05-09 10:10 | 26.16665 | 92.58365 | 36888 ft | 515 kts | 111° |
| 2026-05-09 10:11 | 26.14857 | 92.66083 | 36883 ft | 515 kts | 111° |
| 2026-05-09 10:11 | 26.13049 | 92.73802 | 36867 ft | 515 kts | 111° |
| 2026-05-09 10:12 | 26.11229 | 92.81518 | 36867 ft | 515 kts | 112° |
| 2026-05-09 10:12 | 26.09404 | 92.89238 | 36869 ft | 515 kts | 111° |
| 2026-05-09 10:13 | 26.07587 | 92.96945 | 36867 ft | 515 kts | 112° |
| 2026-05-09 10:13 | 26.05766 | 93.04644 | 36867 ft | 515 kts | 112° |
| 2026-05-09 10:14 | 26.03954 | 93.12287 | 36869 ft | 515 kts | 111° |
| 2026-05-09 10:14 | 26.02119 | 93.19986 | 36875 ft | 515 kts | 112° |
| 2026-05-09 10:15 | 26.00278 | 93.27687 | 36873 ft | 515 kts | 112° |
| 2026-05-09 10:15 | 25.98431 | 93.35378 | 36877 ft | 515 kts | 112° |
| 2026-05-09 10:16 | 25.96586 | 93.43064 | 36870 ft | 515 kts | 112° |
| 2026-05-09 10:16 | 25.94737 | 93.50748 | 36876 ft | 515 kts | 112° |
| 2026-05-09 10:17 | 25.92891 | 93.58439 | 36866 ft | 514 kts | 112° |
| 2026-05-09 10:17 | 25.91048 | 93.66058 | 36865 ft | 513 kts | 112° |
| 2026-05-09 10:18 | 25.89182 | 93.73707 | 36853 ft | 513 kts | 112° |
| 2026-05-09 10:18 | 25.87702 | 93.81494 | 36860 ft | 520 kts | 103° |
| 2026-05-09 10:19 | 25.86800 | 93.89459 | 36870 ft | 520 kts | 103° |
| 2026-05-09 10:19 | 25.85880 | 93.97423 | 36881 ft | 519 kts | 103° |
| 2026-05-09 10:20 | 25.84954 | 94.05322 | 36891 ft | 519 kts | 103° |
| 2026-05-09 10:20 | 25.84023 | 94.13275 | 36903 ft | 519 kts | 103° |
| 2026-05-09 10:21 | 25.83093 | 94.21217 | 36893 ft | 519 kts | 103° |
| 2026-05-09 10:21 | 25.82159 | 94.29157 | 36928 ft | 519 kts | 103° |
| 2026-05-09 10:22 | 25.81216 | 94.37091 | 36936 ft | 519 kts | 103° |
| 2026-05-09 10:22 | 25.80266 | 94.45025 | 36929 ft | 518 kts | 103° |
| 2026-05-09 10:23 | 25.79314 | 94.52957 | 36920 ft | 518 kts | 103° |
| 2026-05-09 10:23 | 25.78369 | 94.60873 | 36910 ft | 518 kts | 103° |
| 2026-05-09 10:24 | 25.77420 | 94.68756 | 36925 ft | 518 kts | 103° |
| 2026-05-09 10:24 | 25.76457 | 94.76668 | 36932 ft | 517 kts | 103° |
| 2026-05-09 10:25 | 25.75489 | 94.84568 | 36921 ft | 517 kts | 103° |
| 2026-05-09 10:25 | 25.74514 | 94.92483 | 36932 ft | 517 kts | 104° |
| 2026-05-09 10:26 | 25.73541 | 95.00396 | 36929 ft | 517 kts | 103° |
| 2026-05-09 10:26 | 25.72576 | 95.08309 | 36910 ft | 517 kts | 103° |
| 2026-05-09 10:27 | 25.71595 | 95.16200 | 36914 ft | 517 kts | 103° |
| 2026-05-09 10:27 | 25.70603 | 95.24048 | 36891 ft | 517 kts | 104° |
| 2026-05-09 10:28 | 25.69615 | 95.31933 | 36883 ft | 516 kts | 103° |
| 2026-05-09 10:28 | 25.68630 | 95.39831 | 36843 ft | 517 kts | 103° |
| 2026-05-09 10:29 | 25.67634 | 95.47719 | 36851 ft | 517 kts | 104° |
| 2026-05-09 10:29 | 25.66629 | 95.55612 | 36824 ft | 517 kts | 104° |
| 2026-05-09 10:30 | 25.65627 | 95.63510 | 36805 ft | 517 kts | 104° |
| 2026-05-09 10:30 | 25.64615 | 95.71405 | 36795 ft | 517 kts | 104° |
| 2026-05-09 10:31 | 25.63590 | 95.79299 | 36804 ft | 518 kts | 104° |
| 2026-05-09 10:31 | 25.62572 | 95.87202 | 36809 ft | 518 kts | 103° |
| 2026-05-09 10:32 | 25.61555 | 95.95097 | 36817 ft | 518 kts | 104° |
| 2026-05-09 10:32 | 25.60535 | 96.02946 | 36818 ft | 518 kts | 104° |
| 2026-05-09 10:33 | 25.59499 | 96.10836 | 36817 ft | 517 kts | 104° |
| 2026-05-09 10:33 | 25.58460 | 96.18714 | 36812 ft | 517 kts | 104° |
| 2026-05-09 10:34 | 25.57415 | 96.26612 | 36820 ft | 518 kts | 104° |
| 2026-05-09 10:34 | 25.55843 | 96.38441 | 36812 ft | 517 kts | 104° |
| 2026-05-09 10:35 | 25.54795 | 96.46331 | 36805 ft | 517 kts | 104° |
| 2026-05-09 10:35 | 25.53745 | 96.54210 | 36792 ft | 517 kts | 104° |
| 2026-05-09 10:36 | 25.52676 | 96.62092 | 36794 ft | 518 kts | 104° |
| 2026-05-09 10:36 | 25.51600 | 96.69974 | 36805 ft | 518 kts | 104° |
| 2026-05-09 10:37 | 25.50534 | 96.77858 | 36810 ft | 518 kts | 104° |
| 2026-05-09 10:37 | 25.49478 | 96.85751 | 36816 ft | 519 kts | 104° |
| 2026-05-09 10:38 | 25.48403 | 96.93595 | 36814 ft | 519 kts | 104° |
| 2026-05-09 10:38 | 25.47315 | 97.01484 | 36762 ft | 518 kts | 103° |
| 2026-05-09 10:39 | 25.46227 | 97.09363 | 36791 ft | 518 kts | 104° |
| 2026-05-09 10:39 | 25.45138 | 97.17225 | 36797 ft | 517 kts | 104° |
| 2026-05-09 10:40 | 25.44047 | 97.25085 | 36801 ft | 516 kts | 104° |
| 2026-05-09 10:40 | 25.42952 | 97.32939 | 36808 ft | 516 kts | 104° |
| 2026-05-09 10:41 | 25.41850 | 97.40796 | 36812 ft | 516 kts | 104° |
| 2026-05-09 10:41 | 25.40748 | 97.48639 | 36812 ft | 516 kts | 104° |
| 2026-05-09 10:42 | 25.39635 | 97.56485 | 36812 ft | 516 kts | 104° |
| 2026-05-09 10:42 | 25.38713 | 97.62998 | 36822 ft | 516 kts | 104° |
| 2026-05-09 10:43 | 25.37412 | 97.72100 | 36821 ft | 516 kts | 104° |
| 2026-05-09 10:43 | 25.36290 | 97.79943 | 36864 ft | 516 kts | 104° |
| 2026-05-09 10:44 | 25.35358 | 97.86462 | 36861 ft | 516 kts | 104° |
| 2026-05-09 10:44 | 25.34234 | 97.94295 | 36907 ft | 517 kts | 104° |
| 2026-05-09 10:46 | 25.31406 | 98.13863 | 36952 ft | 514 kts | 103° |
| 2026-05-09 10:46 | 25.30261 | 98.21658 | 36984 ft | 514 kts | 104° |
| 2026-05-09 10:47 | 25.29115 | 98.29458 | 36977 ft | 514 kts | 103° |
| 2026-05-09 10:47 | 25.27972 | 98.37249 | 36975 ft | 513 kts | 104° |
| 2026-05-09 10:48 | 25.26831 | 98.44981 | 36949 ft | 513 kts | 104° |
| 2026-05-09 10:48 | 25.25682 | 98.52756 | 36946 ft | 512 kts | 104° |
| 2026-05-09 10:49 | 25.24526 | 98.60528 | 36945 ft | 512 kts | 104° |
| 2026-05-09 10:49 | 25.23375 | 98.68293 | 36935 ft | 512 kts | 104° |
| 2026-05-09 10:50 | 25.22215 | 98.76058 | 36927 ft | 512 kts | 104° |
| 2026-05-09 10:50 | 25.21052 | 98.83788 | 36899 ft | 509 kts | 104° |
| 2026-05-09 10:51 | 25.19890 | 98.91481 | 36929 ft | 513 kts | 104° |
| 2026-05-09 10:51 | 25.18714 | 98.99247 | 36943 ft | 513 kts | 104° |
| 2026-05-09 10:52 | 25.17542 | 99.07014 | 36938 ft | 512 kts | 103° |
| 2026-05-09 10:52 | 25.16364 | 99.14751 | 36930 ft | 511 kts | 104° |
| 2026-05-09 10:53 | 25.15170 | 99.22488 | 36929 ft | 511 kts | 104° |
| 2026-05-09 10:53 | 25.13977 | 99.30233 | 36949 ft | 512 kts | 104° |
| 2026-05-09 10:54 | 25.12789 | 99.37970 | 36948 ft | 511 kts | 104° |
| 2026-05-09 10:54 | 25.11604 | 99.45687 | 36950 ft | 510 kts | 104° |
| 2026-05-09 10:55 | 25.10403 | 99.53398 | 36952 ft | 510 kts | 104° |
| 2026-05-09 10:55 | 25.09200 | 99.61063 | 36963 ft | 511 kts | 104° |
| 2026-05-09 10:56 | 25.07993 | 99.68774 | 36945 ft | 509 kts | 104° |
| 2026-05-09 10:56 | 25.06792 | 99.76473 | 36938 ft | 510 kts | 104° |
| 2026-05-09 10:57 | 25.05573 | 99.84186 | 36938 ft | 510 kts | 104° |
| 2026-05-09 10:57 | 25.04357 | 99.91891 | 36955 ft | 509 kts | 104° |
| 2026-05-09 10:58 | 25.03145 | 99.99564 | 36949 ft | 507 kts | 104° |
| 2026-05-09 10:58 | 25.01920 | 100.07233 | 36962 ft | 508 kts | 104° |
| 2026-05-09 10:59 | 25.00691 | 100.14896 | 36967 ft | 507 kts | 104° |
| 2026-05-09 10:59 | 24.99470 | 100.22560 | 36973 ft | 506 kts | 105° |
| 2026-05-09 11:00 | 24.97597 | 100.29906 | 36991 ft | 500 kts | 112° |
| 2026-05-09 11:00 | 24.95556 | 100.37306 | 37013 ft | 502 kts | 111° |
| 2026-05-09 11:01 | 24.93544 | 100.44609 | 37034 ft | 501 kts | 111° |
| 2026-05-09 11:01 | 24.91526 | 100.51943 | 37030 ft | 501 kts | 111° |
| 2026-05-09 11:02 | 24.89506 | 100.59285 | 37058 ft | 500 kts | 111° |
| 2026-05-09 11:02 | 24.87484 | 100.66624 | 37055 ft | 501 kts | 111° |
| 2026-05-09 11:03 | 24.85459 | 100.73956 | 37079 ft | 500 kts | 111° |
| 2026-05-09 11:03 | 24.83423 | 100.81307 | 37089 ft | 502 kts | 112° |
| 2026-05-09 11:04 | 24.81394 | 100.88590 | 37106 ft | 502 kts | 112° |
| 2026-05-09 11:04 | 24.79866 | 100.94033 | 37116 ft | 503 kts | 111° |
| 2026-05-09 11:05 | 24.77866 | 101.01173 | 37117 ft | 504 kts | 111° |
| 2026-05-09 11:05 | 24.75813 | 101.08552 | 37129 ft | 504 kts | 111° |
| 2026-05-09 11:06 | 24.73761 | 101.15895 | 37116 ft | 499 kts | 111° |
| 2026-05-09 11:06 | 24.71710 | 101.23203 | 37129 ft | 499 kts | 112° |
| 2026-05-09 11:07 | 24.69655 | 101.30500 | 37116 ft | 500 kts | 111° |
| 2026-05-09 11:07 | 24.67600 | 101.37807 | 37113 ft | 500 kts | 112° |
| 2026-05-09 11:08 | 24.65555 | 101.45055 | 37118 ft | 501 kts | 111° |
| 2026-05-09 11:08 | 24.63489 | 101.52371 | 37133 ft | 503 kts | 109° |
| 2026-05-09 11:09 | 24.62518 | 101.60033 | 37122 ft | 512 kts | 91° |
| 2026-05-09 11:09 | 24.62871 | 101.67826 | 37130 ft | 508 kts | 89° |
| 2026-05-09 11:10 | 24.63250 | 101.75576 | 37138 ft | 509 kts | 89° |
| 2026-05-09 11:10 | 24.63612 | 101.83360 | 37129 ft | 510 kts | 89° |
| 2026-05-09 11:11 | 24.63965 | 101.91159 | 37162 ft | 512 kts | 89° |
| 2026-05-09 11:11 | 24.64325 | 101.98993 | 37168 ft | 513 kts | 89° |
| 2026-05-09 11:11 | 24.64506 | 102.02900 | 37032 ft | 513 kts | 89° |
| 2026-05-09 11:12 | 24.64683 | 102.06809 | 36797 ft | 512 kts | 89° |
| 2026-05-09 11:12 | 24.64854 | 102.10682 | 36554 ft | 512 kts | 89° |
| 2026-05-09 11:12 | 24.65027 | 102.14590 | 36119 ft | 512 kts | 89° |
| 2026-05-09 11:12 | 24.65198 | 102.18528 | 35048 ft | 520 kts | 90° |
| 2026-05-09 11:13 | 24.65580 | 102.22510 | 34082 ft | 528 kts | 81° |
| 2026-05-09 11:13 | 24.66569 | 102.26385 | 33424 ft | 526 kts | 70° |
| 2026-05-09 11:13 | 24.68080 | 102.30026 | 32794 ft | 521 kts | 60° |
| 2026-05-09 11:13 | 24.70074 | 102.33331 | 32171 ft | 516 kts | 51° |
| 2026-05-09 11:14 | 24.72333 | 102.36368 | 31578 ft | 512 kts | 50° |
| 2026-05-09 11:14 | 24.74586 | 102.39378 | 30963 ft | 507 kts | 50° |
| 2026-05-09 11:14 | 24.76817 | 102.42355 | 30375 ft | 503 kts | 51° |
| 2026-05-09 11:14 | 24.79030 | 102.45312 | 29705 ft | 497 kts | 51° |
| 2026-05-09 11:15 | 24.81213 | 102.48232 | 29159 ft | 490 kts | 50° |
| 2026-05-09 11:15 | 24.83364 | 102.51108 | 28585 ft | 484 kts | 50° |
| 2026-05-09 11:15 | 24.85505 | 102.53940 | 28037 ft | 478 kts | 47° |
| 2026-05-09 11:15 | 24.87888 | 102.56453 | 27480 ft | 472 kts | 37° |
| 2026-05-09 11:16 | 24.90461 | 102.58681 | 26963 ft | 466 kts | 36° |
| 2026-05-09 11:16 | 24.92998 | 102.60875 | 26441 ft | 461 kts | 36° |
| 2026-05-09 11:16 | 24.95507 | 102.63045 | 25960 ft | 455 kts | 36° |
| 2026-05-09 11:16 | 24.97983 | 102.65185 | 25469 ft | 450 kts | 36° |
| 2026-05-09 11:17 | 25.00440 | 102.67313 | 24972 ft | 446 kts | 36° |
| 2026-05-09 11:17 | 25.02835 | 102.69391 | 24490 ft | 443 kts | 36° |
| 2026-05-09 11:17 | 25.05249 | 102.71480 | 23992 ft | 440 kts | 36° |
| 2026-05-09 11:17 | 25.07655 | 102.73559 | 23434 ft | 437 kts | 36° |
| 2026-05-09 11:18 | 25.10044 | 102.75626 | 22931 ft | 433 kts | 35° |
| 2026-05-09 11:18 | 25.12401 | 102.77673 | 22420 ft | 430 kts | 35° |
| 2026-05-09 11:18 | 25.14745 | 102.79708 | 21908 ft | 427 kts | 35° |
| 2026-05-09 11:18 | 25.17061 | 102.81720 | 21451 ft | 422 kts | 35° |
| 2026-05-09 11:19 | 25.19363 | 102.83721 | 21006 ft | 418 kts | 35° |
| 2026-05-09 11:19 | 25.21630 | 102.85693 | 20565 ft | 413 kts | 35° |
| 2026-05-09 11:19 | 25.23873 | 102.87642 | 19981 ft | 406 kts | 35° |
| 2026-05-09 11:19 | 25.26074 | 102.89558 | 19291 ft | 397 kts | 35° |
| 2026-05-09 11:20 | 25.28199 | 102.91411 | 18810 ft | 382 kts | 35° |
| 2026-05-09 11:20 | 25.30246 | 102.93200 | 18247 ft | 370 kts | 35° |
| 2026-05-09 11:20 | 25.32258 | 102.94953 | 17554 ft | 363 kts | 35° |
| 2026-05-09 11:20 | 25.34201 | 102.96646 | 17140 ft | 352 kts | 35° |
| 2026-05-09 11:21 | 25.36110 | 102.98306 | 16925 ft | 345 kts | 35° |
| 2026-05-09 11:21 | 25.37988 | 102.99941 | 16697 ft | 344 kts | 34° |
| 2026-05-09 11:21 | 25.39895 | 103.01596 | 16082 ft | 351 kts | 35° |
| 2026-05-09 11:21 | 25.41785 | 103.03243 | 15878 ft | 343 kts | 35° |
| 2026-05-09 11:22 | 25.43657 | 103.04875 | 15310 ft | 346 kts | 36° |
| 2026-05-09 11:22 | 25.45576 | 103.06565 | 14582 ft | 357 kts | 39° |
| 2026-05-09 11:22 | 25.47055 | 103.08729 | 14356 ft | 353 kts | 66° |
| 2026-05-09 11:22 | 25.47509 | 103.11350 | 14060 ft | 349 kts | 92° |
| 2026-05-09 11:23 | 25.46904 | 103.13914 | 13388 ft | 342 kts | 120° |
| 2026-05-09 11:23 | 25.45573 | 103.16022 | 12872 ft | 329 kts | 133° |
| 2026-05-09 11:23 | 25.44031 | 103.17793 | 12340 ft | 319 kts | 138° |
| 2026-05-09 11:23 | 25.42312 | 103.19259 | 11807 ft | 306 kts | 159° |
| 2026-05-09 11:24 | 25.40299 | 103.19682 | 11377 ft | 288 kts | 187° |
| 2026-05-09 11:24 | 25.38448 | 103.19063 | 10951 ft | 274 kts | 213° |
| 2026-05-09 11:24 | 25.36939 | 103.17834 | 10533 ft | 265 kts | 219° |
| 2026-05-09 11:24 | 25.35523 | 103.16581 | 10119 ft | 257 kts | 219° |
| 2026-05-09 11:25 | 25.34166 | 103.15394 | 9890 ft | 240 kts | 218° |
| 2026-05-09 11:25 | 25.32887 | 103.14283 | 9859 ft | 227 kts | 218° |
| 2026-05-09 11:25 | 25.31686 | 103.13240 | 9865 ft | 213 kts | 219° |
| 2026-05-09 11:25 | 25.30534 | 103.12240 | 9859 ft | 209 kts | 219° |
| 2026-05-09 11:26 | 25.29396 | 103.11251 | 9859 ft | 208 kts | 219° |
| 2026-05-09 11:26 | 25.28255 | 103.10259 | 9860 ft | 210 kts | 218° |
| 2026-05-09 11:26 | 25.27111 | 103.09266 | 9858 ft | 209 kts | 219° |
| 2026-05-09 11:26 | 25.25966 | 103.08273 | 9856 ft | 209 kts | 218° |
| 2026-05-09 11:27 | 25.24816 | 103.07276 | 9862 ft | 210 kts | 219° |
| 2026-05-09 11:27 | 25.23683 | 103.06294 | 9821 ft | 210 kts | 219° |
| 2026-05-09 11:27 | 25.22536 | 103.05299 | 9620 ft | 209 kts | 219° |
| 2026-05-09 11:27 | 25.21390 | 103.04305 | 9360 ft | 210 kts | 218° |
| 2026-05-09 11:28 | 25.20240 | 103.03309 | 9086 ft | 210 kts | 218° |
| 2026-05-09 11:28 | 25.19093 | 103.02315 | 8815 ft | 206 kts | 219° |
| 2026-05-09 11:28 | 25.18004 | 103.01373 | 8568 ft | 193 kts | 218° |
| 2026-05-09 11:28 | 25.16985 | 103.00491 | 8310 ft | 179 kts | 218° |
| 2026-05-09 11:29 | 25.16039 | 102.99672 | 8073 ft | 167 kts | 218° |
| 2026-05-09 11:29 | 25.15183 | 102.98877 | 7832 ft | 159 kts | 227° |
| 2026-05-09 11:29 | 25.14470 | 102.97946 | 7409 ft | 159 kts | 227° |
| 2026-05-09 11:29 | 25.13654 | 102.97143 | 7218 ft | 158 kts | 218° |
| 2026-05-09 11:30 | 25.12777 | 102.96406 | 7083 ft | 158 kts | 220° |
| 2026-05-09 11:30 | 25.11916 | 102.95646 | 6940 ft | 159 kts | 217° |
| 2026-05-09 11:30 | 25.11102 | 102.94935 | 6892 ft | 130 kts | 218° |
| 2026-05-09 11:30 | 25.10532 | 102.94437 | 6892 ft | 81 kts | 218° |
| 2026-05-09 11:31 | 25.10302 | 102.94149 | 6894 ft | 28 kts | 255° |
| 2026-05-09 11:31 | 25.10239 | 102.93951 | 6894 ft | 24 kts | 254° |
| 2026-05-09 11:31 | 25.10303 | 102.93786 | 6894 ft | 27 kts | 312° |
| 2026-05-09 11:31 | 25.10322 | 102.93673 | 6894 ft | 14 kts | 228° |
| 2026-05-09 11:32 | 25.10314 | 102.93564 | 6894 ft | 17 kts | 281° |
| 2026-05-09 11:32 | 25.10324 | 102.93526 | 6894 ft | 0 kts | 290° |